Time;durP1;ratioP1;P1;durP2;ratioP2;P2;SDS_P1;SDS_P2;PMS_P1;PMS_P2;Temp;Humidity;BMP_temperature;BMP_pressure;BME280_temperature;BME280_humidity;BME280_pressure;Samples;Min_cycle;Max_cycle;Signal;HPM_P1;HPM_P2
2022/02/06 00:00:27;;;;;;;32.46;23.68;;;;;;;-1.37;62.80;100620.98;461556;112;922659;-75
2022/02/06 00:01:32;;;;;;;36.57;24.57;;;;;;;-1.36;62.76;100629.86;461573;112;930535;-76
2022/02/06 00:02:37;;;;;;;31.32;23.93;;;;;;;-1.36;62.80;100628.03;462207;112;922971;-75
2022/02/06 00:03:40;;;;;;;33.38;24.05;;;;;;;-1.35;62.75;100631.55;462188;112;922930;-76
2022/02/06 00:04:46;;;;;;;33.72;23.99;;;;;;;-1.36;62.83;100633.37;460808;112;922574;-75
2022/02/06 00:05:49;;;;;;;29.69;23.27;;;;;;;-1.36;62.84;100629.86;455781;114;930715;-75
2022/02/06 00:06:53;;;;;;;35.56;24.66;;;;;;;-1.37;62.83;100620.14;455573;113;922780;-76
2022/02/06 00:07:57;;;;;;;32.26;23.65;;;;;;;-1.38;63.00;100623.81;463567;111;922606;-76
2022/02/06 00:09:00;;;;;;;36.19;23.61;;;;;;;-1.38;63.35;100618.47;462883;112;930465;-76
2022/02/06 00:10:04;;;;;;;34.60;24.29;;;;;;;-1.35;63.58;100620.85;463790;112;922569;-75
2022/02/06 00:11:09;;;;;;;34.01;24.98;;;;;;;-1.33;63.72;100618.90;463463;112;930598;-76
2022/02/06 00:12:13;;;;;;;38.57;25.97;;;;;;;-1.32;63.79;100612.54;463072;112;922642;-75
2022/02/06 00:13:17;;;;;;;36.63;24.31;;;;;;;-1.30;63.88;100616.78;460815;112;922682;-75
2022/02/06 00:14:20;;;;;;;35.16;24.68;;;;;;;-1.26;63.90;100606.64;462810;112;930759;-75
2022/02/06 00:15:23;;;;;;;39.59;26.06;;;;;;;-1.24;63.91;100609.19;462574;112;923293;-75
2022/02/06 00:16:27;;;;;;;33.48;24.98;;;;;;;-1.21;63.97;100603.58;462349;112;922843;-75
2022/02/06 00:17:31;;;;;;;42.80;27.09;;;;;;;-1.19;64.03;100609.61;463009;112;922617;-76
2022/02/06 00:18:34;;;;;;;41.59;27.78;;;;;;;-1.18;64.22;100605.96;460902;112;922752;-75
2022/02/06 00:19:42;;;;;;;36.23;25.98;;;;;;;-1.16;64.32;100599.50;462003;112;923131;-76
2022/02/06 00:20:52;;;;;;;37.39;25.62;;;;;;;-1.12;64.33;100600.05;461545;112;923046;-76
2022/02/06 00:21:53;;;;;;;39.80;26.80;;;;;;;-1.10;64.43;100590.07;460854;112;922591;-75
2022/02/06 00:22:59;;;;;;;37.75;26.41;;;;;;;-1.08;64.51;100593.43;462086;112;922550;-75
2022/02/06 00:24:03;;;;;;;37.66;24.82;;;;;;;-1.05;64.63;100599.37;459573;113;922509;-76
2022/02/06 00:25:17;;;;;;;33.83;24.23;;;;;;;-1.03;64.53;100601.88;459989;113;922563;-76
2022/02/06 00:26:30;;;;;;;32.70;23.25;;;;;;;-1.02;64.50;100595.55;458526;113;922678;-76
2022/02/06 00:27:36;;;;;;;31.92;23.87;;;;;;;-1.02;64.55;100598.23;458783;113;924024;-76
2022/02/06 00:29:51;;;;;;;45.96;28.80;;;;;;;-1.00;64.71;100589.09;458933;113;922727;-76
2022/02/06 00:30:58;;;;;;;53.97;30.76;;;;;;;-0.99;64.84;100593.42;459621;113;922932;-76
2022/02/06 00:32:02;;;;;;;43.81;26.65;;;;;;;-0.99;64.83;100588.08;460130;113;922610;-78
2022/02/06 00:33:16;;;;;;;40.28;26.94;;;;;;;-0.99;64.98;100588.08;460519;113;922715;-75
2022/02/06 00:38:24;;;;;;;28.13;22.45;;;;;;;-0.98;65.56;100581.74;461841;113;922616;-75
2022/02/06 00:39:15;;;;;;;32.93;21.27;;;;;;;-0.98;65.56;100579.06;458890;113;922716;-76
2022/02/06 00:40:19;;;;;;;27.26;21.06;;;;;;;-0.97;65.66;100578.09;460618;113;922541;-76
2022/02/06 00:41:22;;;;;;;24.98;21.40;;;;;;;-0.96;65.75;100581.61;461274;114;922525;-75
2022/02/06 00:42:25;;;;;;;24.90;20.72;;;;;;;-0.97;65.94;100580.77;461126;114;922623;-76
2022/02/06 00:43:28;;;;;;;24.36;20.66;;;;;;;-0.95;66.04;100577.95;459924;112;923011;-76
2022/02/06 00:44:32;;;;;;;25.22;20.08;;;;;;;-0.95;66.07;100577.95;460926;113;923130;-75
2022/02/06 00:45:35;;;;;;;22.28;19.16;;;;;;;-0.96;66.00;100569.08;460631;114;930273;-77
2022/02/06 00:46:40;;;;;;;22.73;19.21;;;;;;;-0.98;66.01;100568.36;459218;113;923070;-77
2022/02/06 00:47:44;;;;;;;21.93;19.19;;;;;;;-1.00;66.28;100575.70;460419;113;930594;-75
2022/02/06 00:48:56;;;;;;;24.03;17.97;;;;;;;-0.99;66.55;100568.50;460341;114;930540;-76
2022/02/06 00:49:57;;;;;;;21.96;19.62;;;;;;;-0.99;66.68;100572.02;458885;113;922766;-76
2022/02/06 00:51:12;;;;;;;24.20;18.69;;;;;;;-1.00;66.86;100567.68;459777;113;923194;-76
2022/02/06 00:52:18;;;;;;;23.63;19.68;;;;;;;-0.99;66.89;100558.64;457895;114;922851;-75
2022/02/06 00:53:18;;;;;;;22.94;19.19;;;;;;;-0.97;66.93;100561.19;459074;113;922642;-76
2022/02/06 00:54:21;;;;;;;20.83;18.00;;;;;;;-0.96;67.11;100557.53;459353;113;922684;-75
2022/02/06 00:55:24;;;;;;;20.62;18.54;;;;;;;-0.95;67.06;100559.22;458594;113;922652;-75
2022/02/06 00:56:29;;;;;;;20.56;17.76;;;;;;;-0.93;67.06;100549.20;460124;112;922627;-76
2022/02/06 00:57:32;;;;;;;19.62;16.41;;;;;;;-0.94;66.97;100551.03;444834;117;922610;-75
2022/02/06 00:58:37;;;;;;;19.90;16.92;;;;;;;-0.93;67.07;100549.20;448611;116;922543;-76
2022/02/06 00:59:40;;;;;;;17.92;16.16;;;;;;;-0.92;67.33;100550.90;451091;116;922717;-76
2022/02/06 01:00:43;;;;;;;19.54;17.52;;;;;;;-0.90;67.54;100539.08;445271;116;930545;-76
2022/02/06 01:01:46;;;;;;;20.36;17.84;;;;;;;-0.87;67.63;100548.64;446503;116;923009;-76
2022/02/06 01:02:50;;;;;;;18.02;16.24;;;;;;;-0.85;67.59;100541.32;445655;116;922696;-74
2022/02/06 01:03:53;;;;;;;18.33;16.54;;;;;;;-0.83;67.70;100543.86;446410;116;922629;-76
2022/02/06 01:04:56;;;;;;;21.39;16.86;;;;;;;-0.82;67.73;100541.02;450662;116;922746;-75
2022/02/06 01:05:59;;;;;;;18.17;16.20;;;;;;;-0.81;67.65;100545.39;451104;116;922971;-76
2022/02/06 01:07:03;;;;;;;17.21;15.09;;;;;;;-0.80;67.55;100544.41;444043;119;922587;-76
2022/02/06 01:08:08;;;;;;;16.88;15.25;;;;;;;-0.80;67.63;100535.53;442579;118;922530;-76
2022/02/06 01:09:11;;;;;;;16.82;14.89;;;;;;;-0.82;67.62;100538.34;445059;118;922963;-75
2022/02/06 01:10:14;;;;;;;16.88;15.21;;;;;;;-0.83;67.65;100533.16;452036;116;922777;-75
2022/02/06 01:11:18;;;;;;;18.76;16.52;;;;;;;-0.84;67.63;100537.66;442419;116;930657;-76
2022/02/06 01:12:25;;;;;;;17.06;15.34;;;;;;;-0.85;67.72;100538.64;444105;118;922957;-75
2022/02/06 01:13:37;;;;;;;18.13;16.12;;;;;;;-0.86;67.75;100534.27;445590;116;922665;-76
2022/02/06 01:14:51;;;;;;;16.14;14.58;;;;;;;-0.87;67.87;100538.78;443767;116;922577;-76
2022/02/06 01:15:59;;;;;;;16.48;14.75;;;;;;;-0.87;67.85;100536.10;443793;116;922504;-75
2022/02/06 01:18:07;;;;;;;16.33;14.83;;;;;;;-0.90;67.86;100536.40;449350;116;923020;-75
2022/02/06 01:19:17;;;;;;;17.35;15.59;;;;;;;-0.90;67.89;100530.20;449809;116;922672;-75
2022/02/06 01:20:40;;;;;;;16.36;14.76;;;;;;;-0.91;67.96;100534.70;449433;114;922676;-75
2022/02/06 01:21:34;;;;;;;16.42;14.57;;;;;;;-0.91;68.08;100537.38;446840;114;922761;-76
2022/02/06 01:22:28;;;;;;;15.40;14.00;;;;;;;-0.90;68.22;100535.55;447736;114;922829;-76
2022/02/06 01:23:47;;;;;;;16.18;14.61;;;;;;;-0.89;68.22;100537.25;442237;119;923627;-76
2022/02/06 01:24:57;;;;;;;15.48;13.53;;;;;;;-0.87;68.08;100532.58;438565;118;922712;-76
2022/02/06 01:26:07;;;;;;;14.98;13.54;;;;;;;-0.87;68.00;100529.91;442102;118;922601;-76
2022/02/06 01:27:21;;;;;;;14.84;13.53;;;;;;;-0.85;68.26;100525.27;449523;116;923006;-76
2022/02/06 01:28:23;;;;;;;14.41;13.08;;;;;;;-0.80;68.43;100532.86;448541;116;922987;-76
2022/02/06 01:32:04;;;;;;;13.86;12.43;;;;;;;-0.72;68.38;100522.29;449645;116;922905;-75
2022/02/06 01:33:11;;;;;;;13.26;11.98;;;;;;;-0.72;68.38;100515.11;439734;118;922990;-75
2022/02/06 01:34:10;;;;;;;13.68;12.47;;;;;;;-0.69;68.49;100522.84;441084;118;922640;-74
2022/02/06 01:35:17;;;;;;;13.47;12.28;;;;;;;-0.66;68.50;100519.86;440707;119;922497;-75
2022/02/06 01:36:36;;;;;;;12.44;11.36;;;;;;;-0.65;68.52;100518.87;441558;118;922575;-76
2022/02/06 01:39:59;;;;;;;13.32;11.97;;;;;;;-0.59;68.71;100512.09;418055;124;922924;-75
2022/02/06 01:41:09;;;;;;;12.36;11.17;;;;;;;-0.46;68.75;100507.28;470824;110;947067;-75
2022/02/06 01:42:15;;;;;;;11.88;10.88;;;;;;;-0.57;68.78;100504.77;462853;111;922768;-76
2022/02/06 01:43:18;;;;;;;11.47;10.45;;;;;;;-0.56;68.77;100498.43;460373;113;922779;-76
2022/02/06 01:44:44;;;;;;;12.54;11.37;;;;;;;-0.57;68.80;100504.77;466566;111;922874;-75
2022/02/06 01:46:57;;;;;;;11.22;10.19;;;;;;;-0.55;69.04;100505.48;468116;111;922608;-75
2022/02/06 02:00:39;;;;;;;11.87;10.84;;;;;;;-0.49;69.26;100499.52;466722;111;922671;-75
2022/02/06 02:01:35;;;;;;;10.94;9.91;;;;;;;-0.51;69.34;100493.48;467187;110;922695;-76
2022/02/06 02:03:45;;;;;;;10.91;9.96;;;;;;;-0.55;69.47;100484.87;467068;111;922610;-76
2022/02/06 02:07:17;;;;;;;10.38;9.52;;;;;;;-0.51;69.39;100485.45;466661;111;922548;-76
2022/02/06 02:08:28;;;;;;;11.13;10.11;;;;;;;-0.49;69.55;100483.45;463623;111;922818;-76
2022/02/06 02:09:27;;;;;;;12.34;11.28;;;;;;;-0.46;69.59;100480.49;462818;112;922690;-76
2022/02/06 02:20:54;;;;;;;11.23;10.17;;;;;;;-0.57;69.24;100461.93;465529;112;922639;-76
2022/02/06 02:23:26;;;;;;;10.24;9.39;;;;;;;-0.58;69.44;100463.77;468711;110;923577;-76
2022/02/06 02:31:07;;;;;;;10.02;9.01;;;;;;;-0.49;69.91;100467.37;467512;111;922624;-76
2022/02/06 02:43:06;;;;;;;19.16;17.38;;;;;;;-0.44;70.04;100459.75;468383;111;922953;-76
2022/02/06 02:45:49;;;;;;;20.63;18.97;;;;;;;-0.47;69.96;100460.05;467413;111;922973;-75
2022/02/06 02:46:39;;;;;;;22.17;20.46;;;;;;;-0.50;69.90;100452.33;464926;111;922601;-76
2022/02/06 02:47:39;;;;;;;20.43;18.65;;;;;;;-0.50;70.14;100455.00;466842;111;922714;-77
2022/02/06 02:48:44;;;;;;;36.18;32.44;;;;;;;-0.49;70.29;100460.19;468884;111;922969;-75
2022/02/06 02:49:54;;;;;;;49.38;44.02;;;;;;;-0.49;70.31;100462.87;467955;110;922584;-75
2022/02/06 02:51:02;;;;;;;37.44;33.69;;;;;;;-0.47;70.43;100460.05;467293;112;931363;-76
2022/02/06 02:52:07;;;;;;;45.98;41.09;;;;;;;-0.45;70.57;100458.93;466421;111;922744;-75
2022/02/06 02:54:17;;;;;;;23.02;21.29;;;;;;;-0.41;70.69;100459.47;466884;110;922622;-75
2022/02/06 02:57:42;;;;;;;16.34;15.04;;;;;;;-0.30;70.77;100458.43;466855;111;922583;-75
2022/02/06 03:00:18;;;;;;;13.28;12.29;;;;;;;-0.28;70.59;100453.78;466626;111;922552;-77
2022/02/06 03:01:21;;;;;;;11.99;11.04;;;;;;;-0.27;70.68;100447.41;463282;112;922727;-75
2022/02/06 03:02:16;;;;;;;11.27;10.27;;;;;;;-0.24;70.68;100457.84;465597;110;922547;-73
2022/02/06 03:03:24;;;;;;;9.59;8.76;;;;;;;-0.22;70.60;100456.68;451343;115;922920;-75
2022/02/06 03:04:25;;;;;;;10.50;9.56;;;;;;;-0.22;70.53;100451.33;467314;112;922942;-75
2022/02/06 03:05:29;;;;;;;9.31;8.51;;;;;;;-0.20;70.57;100451.18;468057;111;922897;-75
2022/02/06 03:06:32;;;;;;;9.37;8.58;;;;;;;-0.19;70.43;100455.55;468824;111;922701;-75
2022/02/06 03:07:35;;;;;;;9.77;8.95;;;;;;;-0.18;70.44;100454.56;468176;111;922674;-74
2022/02/06 03:08:40;;;;;;;9.35;8.55;;;;;;;-0.19;70.45;100451.05;467102;110;923007;-74
2022/02/06 03:09:45;;;;;;;12.09;11.13;;;;;;;-0.17;70.58;100450.91;466856;110;922515;-75
2022/02/06 03:10:54;;;;;;;9.48;8.71;;;;;;;-0.17;70.47;100443.71;467493;110;923040;-74
2022/02/06 03:11:57;;;;;;;9.13;8.33;;;;;;;-0.16;70.44;100447.20;466192;111;923008;-75
2022/02/06 03:13:06;;;;;;;8.68;7.99;;;;;;;-0.15;70.42;100444.38;466192;112;922592;-74
2022/02/06 03:14:24;;;;;;;8.86;8.02;;;;;;;-0.14;70.39;100447.91;466525;111;922981;-74
2022/02/06 03:15:25;;;;;;;9.38;8.54;;;;;;;-0.14;70.33;100445.23;464951;111;923107;-74
2022/02/06 03:16:25;;;;;;;8.52;7.81;;;;;;;-0.15;70.34;100444.38;465364;111;922611;-76
2022/02/06 03:17:36;;;;;;;7.55;6.95;;;;;;;-0.14;70.19;100445.23;466136;110;922654;-75
2022/02/06 03:18:45;;;;;;;8.20;7.52;;;;;;;-0.14;70.25;100448.76;466817;110;922793;-75
2022/02/06 03:19:53;;;;;;;7.42;6.77;;;;;;;-0.12;70.38;100448.62;466566;110;922623;-74
2022/02/06 03:20:50;;;;;;;8.26;7.66;;;;;;;-0.11;70.39;100451.13;465697;111;922667;-75
2022/02/06 03:21:53;;;;;;;8.70;7.94;;;;;;;-0.08;70.51;100450.00;467672;111;922569;-75
2022/02/06 03:23:00;;;;;;;9.37;8.58;;;;;;;-0.07;70.50;100439.14;467160;111;923337;-75
2022/02/06 03:24:40;;;;;;;8.53;7.76;;;;;;;-0.04;70.44;100448.70;468086;111;922937;-74
2022/02/06 03:25:19;;;;;;;8.32;7.62;;;;;;;-0.03;70.39;100442.34;453690;112;922605;-73
2022/02/06 03:26:22;;;;;;;8.57;7.86;;;;;;;-0.02;70.32;100442.20;466617;110;922784;-75
2022/02/06 03:27:25;;;;;;;8.69;7.84;;;;;;;-0.02;70.40;100438.68;467946;111;923122;-75
2022/02/06 03:28:28;;;;;;;8.58;7.88;;;;;;;0.01;70.36;100435.69;467022;112;922427;-73
2022/02/06 03:29:31;;;;;;;8.61;7.86;;;;;;;0.03;70.28;100439.06;465044;112;922501;-75
2022/02/06 03:30:34;;;;;;;8.73;7.92;;;;;;;0.04;70.20;100438.08;467203;111;922606;-78
2022/02/06 03:31:39;;;;;;;9.06;8.31;;;;;;;0.05;70.08;100442.45;468093;110;922523;-75
2022/02/06 03:32:42;;;;;;;8.59;7.87;;;;;;;0.04;69.95;100443.44;465946;112;923053;-76
2022/02/06 03:33:47;;;;;;;8.55;7.85;;;;;;;0.05;69.92;100438.92;467825;112;922686;-75
2022/02/06 03:34:50;;;;;;;8.86;8.06;;;;;;;0.04;69.85;100442.59;468673;111;922597;-74
2022/02/06 03:35:53;;;;;;;8.66;7.76;;;;;;;0.05;69.98;100436.25;468800;111;922418;-75
2022/02/06 03:36:56;;;;;;;7.94;7.26;;;;;;;0.07;69.98;100442.28;468513;111;922567;-74
2022/02/06 03:37:59;;;;;;;7.81;7.21;;;;;;;0.07;69.95;100440.44;467130;110;922578;-75
2022/02/06 03:39:03;;;;;;;8.04;7.34;;;;;;;0.07;69.86;100440.44;468408;110;922955;-75
2022/02/06 03:40:18;;;;;;;7.59;6.99;;;;;;;0.07;69.71;100437.77;465827;111;922853;-75
2022/02/06 03:41:15;;;;;;;7.56;6.94;;;;;;;0.06;69.71;100436.07;465474;111;922617;-75
2022/02/06 03:42:21;;;;;;;6.97;6.37;;;;;;;0.05;69.77;100437.09;460605;112;922638;-74
2022/02/06 03:43:36;;;;;;;7.43;6.75;;;;;;;0.06;69.78;100441.44;463418;111;922593;-73
2022/02/06 03:44:41;;;;;;;7.74;7.14;;;;;;;0.07;69.75;100442.28;459893;111;922473;-75
2022/02/06 03:45:47;;;;;;;8.04;7.33;;;;;;;0.08;69.87;100444.81;460185;112;922704;-73
2022/02/06 03:46:59;;;;;;;7.66;7.01;;;;;;;0.11;69.87;100441.01;462305;111;922588;-73
2022/02/06 03:47:58;;;;;;;7.41;6.78;;;;;;;0.12;69.71;100440.83;459250;112;923429;-75
2022/02/06 03:49:12;;;;;;;7.03;6.43;;;;;;;0.13;69.72;100437.16;461807;111;922572;-73
2022/02/06 03:50:12;;;;;;;6.91;6.35;;;;;;;0.14;69.69;100448.73;459971;111;923059;-74
2022/02/06 03:51:29;;;;;;;8.30;7.62;;;;;;;0.14;69.61;100435.33;462386;112;923034;-76
2022/02/06 03:52:36;;;;;;;7.12;6.52;;;;;;;0.13;69.61;100436.31;461415;111;922620;-74
2022/02/06 03:53:31;;;;;;;7.83;7.15;;;;;;;0.11;69.62;100441.82;459573;112;922515;-73
2022/02/06 03:54:34;;;;;;;9.16;8.36;;;;;;;0.12;69.74;100437.30;461767;111;922949;-75
2022/02/06 03:55:37;;;;;;;8.46;7.74;;;;;;;0.12;69.81;100435.47;462168;112;923115;-74
2022/02/06 03:56:41;;;;;;;8.53;7.83;;;;;;;0.14;69.85;100432.64;461199;111;922785;-76
2022/02/06 03:57:46;;;;;;;8.71;7.87;;;;;;;0.15;69.84;100437.02;463311;111;922826;-74
2022/02/06 03:58:49;;;;;;;8.51;7.72;;;;;;;0.16;69.79;100436.87;462396;112;922678;-74
2022/02/06 03:59:52;;;;;;;10.53;9.63;;;;;;;0.18;69.99;100434.02;461517;112;922429;-75
2022/02/06 04:00:54;;;;;;;9.98;9.11;;;;;;;0.21;69.87;100434.58;462997;111;922900;-75
2022/02/06 04:01:58;;;;;;;10.25;9.41;;;;;;;0.21;69.92;100429.22;462647;113;922533;-77
2022/02/06 04:03:04;;;;;;;11.28;10.27;;;;;;;0.23;69.91;100434.41;461233;112;922823;-74
2022/02/06 04:04:07;;;;;;;12.41;11.21;;;;;;;0.23;69.79;100432.57;461733;111;922623;-75
2022/02/06 04:05:10;;;;;;;11.51;10.48;;;;;;;0.23;69.64;100437.09;460991;111;922686;-75
2022/02/06 04:06:13;;;;;;;9.84;8.96;;;;;;;0.22;69.71;100438.11;461554;113;922510;-73
2022/02/06 04:07:16;;;;;;;10.26;9.45;;;;;;;0.20;69.77;100430.20;462898;111;922527;-75
2022/02/06 04:08:20;;;;;;;8.46;7.73;;;;;;;0.21;69.92;100431.05;461132;112;923006;-75
2022/02/06 04:09:32;;;;;;;8.99;8.19;;;;;;;0.20;69.96;100435.57;462260;111;922669;-75
2022/02/06 04:10:35;;;;;;;10.49;9.53;;;;;;;0.21;70.09;100436.41;461547;111;922746;-75
2022/02/06 04:11:34;;;;;;;8.89;7.88;;;;;;;0.21;70.07;100444.46;460855;111;922591;-76
2022/02/06 04:12:40;;;;;;;7.98;7.28;;;;;;;0.19;69.94;100439.23;462337;111;923284;-75
2022/02/06 04:14:06;;;;;;;6.84;6.26;;;;;;;0.19;69.96;100438.39;461212;112;922545;-74
2022/02/06 04:15:07;;;;;;;6.99;6.39;;;;;;;0.17;69.95;100438.53;462256;112;922605;-75
2022/02/06 04:16:12;;;;;;;6.59;5.93;;;;;;;0.17;70.22;100432.33;460500;112;922730;-75
2022/02/06 04:17:21;;;;;;;6.89;6.29;;;;;;;0.17;70.39;100427.81;461768;112;922626;-75
2022/02/06 04:18:22;;;;;;;7.22;6.64;;;;;;;0.18;70.41;100431.34;460002;111;922682;-73
2022/02/06 04:19:24;;;;;;;7.77;7.01;;;;;;;0.17;70.24;100427.81;460823;111;922535;-78
2022/02/06 04:20:25;;;;;;;6.79;6.29;;;;;;;0.16;70.29;100426.16;461491;112;922493;-73
2022/02/06 04:21:28;;;;;;;7.41;6.81;;;;;;;0.14;70.40;100422.77;461421;112;923062;-74
2022/02/06 04:22:32;;;;;;;7.53;6.94;;;;;;;0.15;70.40;100435.19;461482;112;922731;-76
2022/02/06 04:23:35;;;;;;;6.53;5.98;;;;;;;0.14;70.50;100427.28;460938;112;922998;-74
2022/02/06 04:24:38;;;;;;;7.92;7.32;;;;;;;0.14;70.67;100428.13;462399;111;922894;-75
2022/02/06 04:25:41;;;;;;;8.78;8.08;;;;;;;0.14;70.63;100428.13;460046;111;923643;-74
2022/02/06 04:26:46;;;;;;;9.16;8.44;;;;;;;0.14;70.63;100428.13;459123;111;922706;-75
2022/02/06 04:27:49;;;;;;;8.56;7.79;;;;;;;0.12;70.58;100422.06;462493;111;922477;-75
2022/02/06 04:28:52;;;;;;;7.72;7.06;;;;;;;0.12;70.72;100421.22;461742;111;931263;-75
2022/02/06 04:29:56;;;;;;;7.29;6.59;;;;;;;0.12;70.78;100418.54;462630;111;923052;-75
2022/02/06 04:30:59;;;;;;;7.39;6.61;;;;;;;0.12;70.82;100419.38;462275;111;922492;-75
2022/02/06 04:32:04;;;;;;;7.26;6.66;;;;;;;0.13;70.87;100421.08;462352;112;930626;-76
2022/02/06 04:33:09;;;;;;;7.78;7.16;;;;;;;0.14;70.87;100422.77;461673;111;923008;-74
2022/02/06 04:34:14;;;;;;;7.79;7.10;;;;;;;0.15;70.87;100419.09;463235;111;922660;-76
2022/02/06 04:35:19;;;;;;;7.32;6.70;;;;;;;0.14;70.69;100432.64;461183;112;922617;-74
2022/02/06 04:36:27;;;;;;;8.03;7.33;;;;;;;0.13;70.66;100420.23;461821;111;922832;-75
2022/02/06 04:37:39;;;;;;;7.96;7.27;;;;;;;0.13;70.74;100425.59;462203;112;922639;-79
2022/02/06 04:39:10;;;;;;;8.18;7.48;;;;;;;0.14;70.83;100433.49;460703;111;922983;-76
2022/02/06 04:54:56;;;;;;;6.83;6.16;;;;;;;0.13;70.59;100428.27;468279;112;922713;-73
2022/02/06 05:13:37;;;;;;;6.78;6.13;;;;;;;0.28;70.53;100438.31;471718;110;947389;-74
2022/02/06 05:18:21;;;;;;;5.86;5.36;;;;;;;0.16;70.89;100436.03;464215;112;922611;-73
2022/02/06 05:25:30;;;;;;;6.87;6.35;;;;;;;0.25;71.15;100441.31;462591;112;922550;-76
2022/02/06 05:26:40;;;;;;;6.75;6.24;;;;;;;0.29;71.13;100439.16;460632;112;923053;-72
2022/02/06 05:28:44;;;;;;;7.17;6.58;;;;;;;0.34;71.17;100435.03;463476;112;922858;-75
2022/02/06 05:29:51;;;;;;;7.19;6.58;;;;;;;0.36;71.17;100435.73;463708;112;930612;-74
2022/02/06 05:31:23;;;;;;;6.95;6.39;;;;;;;0.38;71.32;100435.59;462785;112;922643;-76
2022/02/06 05:32:15;;;;;;;7.57;6.88;;;;;;;0.38;71.32;100441.80;460657;112;922768;-75
2022/02/06 05:33:05;;;;;;;7.72;7.06;;;;;;;0.36;71.52;100433.05;461069;112;922643;-74
2022/02/06 05:34:08;;;;;;;7.59;6.99;;;;;;;0.37;71.71;100432.06;465119;112;922548;-73
2022/02/06 05:35:10;;;;;;;7.86;7.16;;;;;;;0.39;71.77;100437.25;464387;112;922929;-75
2022/02/06 05:36:15;;;;;;;7.62;6.94;;;;;;;0.39;71.81;100447.97;463265;112;922794;-76
2022/02/06 05:37:18;;;;;;;6.90;6.31;;;;;;;0.41;72.04;100443.31;464860;112;923056;-73
2022/02/06 05:38:21;;;;;;;7.30;6.70;;;;;;;0.44;72.00;100443.02;463613;112;922634;-76
2022/02/06 05:39:24;;;;;;;7.01;6.42;;;;;;;0.45;72.17;100438.47;464577;112;922674;-76
2022/02/06 05:40:27;;;;;;;7.22;6.50;;;;;;;0.47;72.19;100431.13;464131;112;922874;-74
2022/02/06 05:41:30;;;;;;;6.83;6.26;;;;;;;0.48;72.03;100430.98;463293;112;922509;-74
2022/02/06 05:42:34;;;;;;;7.72;7.16;;;;;;;0.48;71.79;100436.34;462600;112;922764;-72
2022/02/06 05:43:37;;;;;;;8.20;6.76;;;;;;;0.47;71.67;100440.02;465154;112;922714;-75
2022/02/06 05:44:42;;;;;;;7.37;6.78;;;;;;;0.46;71.67;100434.80;462450;112;930678;-74
2022/02/06 05:45:45;;;;;;;8.09;7.40;;;;;;;0.45;71.64;100433.95;463365;112;922629;-74
2022/02/06 05:46:48;;;;;;;7.01;6.44;;;;;;;0.45;71.60;100441.16;463062;112;922547;-75
2022/02/06 05:47:52;;;;;;;7.24;6.63;;;;;;;0.46;71.50;100440.16;453370;115;923058;-74
2022/02/06 05:48:55;;;;;;;7.09;6.53;;;;;;;0.45;71.48;100431.27;463728;112;923064;-74
2022/02/06 05:49:58;;;;;;;7.47;6.77;;;;;;;0.46;71.45;100434.80;464054;112;922645;-75
2022/02/06 05:51:01;;;;;;;7.41;6.56;;;;;;;0.46;71.61;100432.97;465203;112;922456;-73
2022/02/06 05:52:05;;;;;;;6.74;6.19;;;;;;;0.48;71.50;100436.34;464646;112;922703;-76
2022/02/06 05:53:08;;;;;;;7.46;6.88;;;;;;;0.48;71.36;100436.34;463285;112;922977;-74
2022/02/06 05:54:11;;;;;;;7.86;7.26;;;;;;;0.48;71.26;100433.66;463734;112;922877;-72
2022/02/06 05:55:14;;;;;;;7.38;6.71;;;;;;;0.49;71.23;100429.99;464351;112;922765;-74
2022/02/06 05:56:19;;;;;;;8.07;7.41;;;;;;;0.49;71.36;100437.19;464281;112;922512;-73
2022/02/06 05:57:23;;;;;;;8.22;7.56;;;;;;;0.50;71.43;100428.97;463638;112;922563;-73
2022/02/06 05:58:26;;;;;;;7.36;6.76;;;;;;;0.52;71.62;100431.51;464109;112;930639;-75
2022/02/06 05:59:29;;;;;;;8.54;7.76;;;;;;;0.51;71.70;100436.02;464176;112;922669;-72
2022/02/06 06:00:32;;;;;;;8.09;7.42;;;;;;;0.51;71.79;100436.02;464321;112;922996;-75
2022/02/06 06:01:35;;;;;;;7.49;6.90;;;;;;;0.53;72.05;100435.88;463813;112;922783;-74
2022/02/06 06:02:39;;;;;;;8.41;7.71;;;;;;;0.53;72.03;100435.88;464290;112;922671;-79
2022/02/06 06:03:42;;;;;;;8.09;7.36;;;;;;;0.54;72.00;100440.25;463405;112;922681;-72
2022/02/06 06:04:45;;;;;;;8.43;7.67;;;;;;;0.53;72.02;100433.20;465694;112;930521;-76
2022/02/06 06:05:48;;;;;;;8.74;7.98;;;;;;;0.53;72.34;100438.56;464699;112;922676;-74
2022/02/06 06:06:51;;;;;;;7.37;6.74;;;;;;;0.50;72.62;100431.65;463639;112;922569;-74
2022/02/06 06:07:54;;;;;;;9.00;8.21;;;;;;;0.50;72.84;100428.16;462233;112;923132;-73
2022/02/06 06:08:59;;;;;;;7.89;7.30;;;;;;;0.49;73.08;100435.36;465159;112;922512;-72
2022/02/06 06:10:03;;;;;;;9.46;8.66;;;;;;;0.51;73.30;100435.18;464403;112;922554;-74
2022/02/06 06:11:06;;;;;;;9.43;8.59;;;;;;;0.52;73.45;100434.19;462291;112;922582;-73
2022/02/06 06:12:10;;;;;;;8.18;7.49;;;;;;;0.53;73.43;100438.56;463296;112;922881;-73
2022/02/06 06:13:13;;;;;;;8.51;7.79;;;;;;;0.53;73.46;100433.20;463209;112;922782;-76
2022/02/06 06:14:16;;;;;;;8.91;8.21;;;;;;;0.51;73.51;100441.39;463227;112;922594;-75
2022/02/06 06:15:20;;;;;;;8.27;7.57;;;;;;;0.51;73.48;100441.39;463202;112;930495;-73
2022/02/06 06:16:23;;;;;;;8.81;8.09;;;;;;;0.51;73.53;100441.39;463527;112;922834;-77
2022/02/06 06:17:26;;;;;;;8.89;8.10;;;;;;;0.52;73.82;100439.55;463722;112;922667;-73
2022/02/06 06:18:30;;;;;;;9.26;8.49;;;;;;;0.53;73.98;100442.09;463468;112;922526;-76
2022/02/06 06:19:35;;;;;;;8.69;7.88;;;;;;;0.58;74.13;100436.26;463556;112;922618;-74
2022/02/06 06:20:39;;;;;;;10.32;9.41;;;;;;;0.62;74.13;100442.99;463347;112;922604;-74
2022/02/06 06:21:46;;;;;;;9.14;8.36;;;;;;;0.65;74.04;100445.38;463153;112;922544;-75
2022/02/06 06:22:51;;;;;;;9.34;8.55;;;;;;;0.67;73.82;100448.73;453895;115;930558;-73
2022/02/06 06:23:54;;;;;;;9.32;8.61;;;;;;;0.70;73.74;100448.45;463250;112;922597;-76
2022/02/06 06:25:01;;;;;;;8.56;7.86;;;;;;;0.71;73.60;100453.66;464110;112;923299;-74
2022/02/06 06:26:02;;;;;;;8.50;7.78;;;;;;;0.73;73.46;100440.07;463069;112;922973;-75
2022/02/06 06:27:07;;;;;;;8.13;7.49;;;;;;;0.75;73.51;100446.14;464078;112;923022;-74
2022/02/06 06:28:10;;;;;;;8.82;8.07;;;;;;;0.77;73.39;100446.84;463720;112;922764;-77
2022/02/06 06:29:14;;;;;;;8.54;7.82;;;;;;;0.79;73.28;100455.55;464447;112;923768;-77
2022/02/06 06:30:18;;;;;;;9.52;8.67;;;;;;;0.79;72.98;100445.67;462561;112;922627;-74
2022/02/06 06:31:21;;;;;;;8.44;7.81;;;;;;;0.77;72.79;100442.28;463346;112;922820;-73
2022/02/06 06:32:24;;;;;;;8.65;7.80;;;;;;;0.76;72.95;100445.14;462898;112;922613;-75
2022/02/06 06:33:27;;;;;;;9.28;8.48;;;;;;;0.74;73.09;100445.30;456344;114;922796;-74
2022/02/06 06:34:31;;;;;;;7.84;7.19;;;;;;;0.75;73.13;100448.82;456384;112;924193;-74
2022/02/06 06:35:35;;;;;;;9.57;8.78;;;;;;;0.75;73.24;100448.82;462640;112;922745;-74
2022/02/06 06:36:38;;;;;;;7.70;7.08;;;;;;;0.75;73.31;100443.45;463596;112;922718;-76
2022/02/06 06:37:41;;;;;;;8.80;8.10;;;;;;;0.75;73.28;100443.45;453298;114;922662;-76
2022/02/06 06:38:45;;;;;;;7.81;7.11;;;;;;;0.75;73.31;100441.61;462986;112;922791;-78
2022/02/06 06:39:48;;;;;;;8.75;8.04;;;;;;;0.76;73.27;100443.31;463693;112;922620;-73
2022/02/06 06:40:53;;;;;;;8.78;8.06;;;;;;;0.77;73.27;100441.47;458128;114;923274;-74
2022/02/06 06:41:56;;;;;;;8.19;7.46;;;;;;;0.78;73.16;100443.13;457726;114;922770;-73
2022/02/06 06:43:00;;;;;;;8.09;7.29;;;;;;;0.77;73.16;100436.10;455088;114;922651;-73
2022/02/06 06:44:03;;;;;;;7.98;7.26;;;;;;;0.77;73.07;100436.10;445053;117;922876;-74